createdAt,value
2023-04-16T00:02:15.898Z,2.60
2023-04-16T00:05:18.016Z,2.67
2023-04-16T00:08:20.157Z,3.10
2023-04-16T00:11:22.561Z,2.83
2023-04-16T00:14:24.628Z,2.88
2023-04-16T00:17:26.891Z,3.10
2023-04-16T00:20:28.927Z,3.30
2023-04-16T00:23:31.203Z,3.20
2023-04-16T00:26:33.408Z,2.90
2023-04-16T00:29:35.812Z,3.75
2023-04-16T00:32:38.955Z,3.22
2023-04-16T00:35:41.450Z,3.70
2023-04-16T00:38:43.528Z,3.10
2023-04-16T00:41:46.347Z,3.65
2023-04-16T00:44:49.411Z,3.22
2023-04-16T00:47:52.652Z,3.22
2023-04-16T00:50:55.678Z,4.22
2023-04-16T00:53:58.241Z,3.25
2023-04-16T00:57:00.333Z,3.65
2023-04-16T01:00:03.222Z,2.85
2023-04-16T01:03:05.912Z,2.80
2023-04-16T01:06:08.125Z,4.45
2023-04-16T01:09:13.540Z,3.00
2023-04-16T01:12:15.772Z,3.30
2023-04-16T01:15:17.861Z,3.10
2023-04-16T01:18:21.508Z,2.90
2023-04-16T01:21:23.613Z,3.53
2023-04-16T01:24:25.645Z,3.63
2023-04-16T01:27:27.656Z,3.50
2023-04-16T01:30:29.728Z,4.57
2023-04-16T01:33:31.859Z,4.25
2023-04-16T01:36:33.872Z,3.72
2023-04-16T01:39:35.914Z,4.57
2023-04-16T01:42:39.092Z,6.25
2023-04-16T01:45:41.367Z,4.18
2023-04-16T01:48:43.557Z,3.28
2023-04-16T01:51:45.763Z,2.78
2023-04-16T01:54:47.786Z,3.80
2023-04-16T01:57:49.909Z,4.30
2023-04-16T02:00:52.141Z,4.45
2023-04-16T02:03:54.460Z,3.47
2023-04-16T02:06:56.549Z,2.95
2023-04-16T02:09:58.663Z,3.22
2023-04-16T02:13:00.701Z,4.18
2023-04-16T02:16:02.883Z,3.53
2023-04-16T02:19:04.975Z,3.83
2023-04-16T02:22:07.304Z,4.30
2023-04-16T02:25:09.487Z,5.03
2023-04-16T02:28:14.226Z,3.50
2023-04-16T02:31:19.727Z,3.95
2023-04-16T02:34:21.897Z,4.38
2023-04-16T02:37:25.971Z,3.88
2023-04-16T02:40:28.392Z,3.78
2023-04-16T02:43:31.324Z,5.10
2023-04-16T02:46:33.777Z,4.10
2023-04-16T02:49:36.025Z,3.40
2023-04-16T02:52:38.133Z,6.20
2023-04-16T02:55:40.228Z,4.05
2023-04-16T02:58:42.301Z,3.80
2023-04-16T03:01:44.308Z,4.05
2023-04-16T03:04:46.799Z,3.78
2023-04-16T03:07:50.710Z,4.47
2023-04-16T03:10:52.876Z,4.32
2023-04-16T03:14:04.913Z,5.50
2023-04-16T03:17:07.217Z,4.00
2023-04-16T03:20:17.195Z,4.68
2023-04-16T03:23:19.356Z,4.23
2023-04-16T03:26:21.880Z,4.50
2023-04-16T03:29:23.845Z,4.97
2023-04-16T03:32:26.078Z,5.13
2023-04-16T03:35:28.325Z,5.18
2023-04-16T03:38:30.509Z,5.28
2023-04-16T03:41:34.717Z,4.00
2023-04-16T03:44:36.911Z,4.60
2023-04-16T03:47:39.005Z,4.55
2023-04-16T03:50:44.939Z,4.00
2023-04-16T03:53:46.942Z,4.80
2023-04-16T03:56:50.444Z,4.85
2023-04-16T03:59:52.621Z,5.20
2023-04-16T04:02:54.892Z,4.60
2023-04-16T04:05:57.077Z,5.65
2023-04-16T04:08:59.628Z,4.78
2023-04-16T04:12:02.197Z,5.20
2023-04-16T04:15:09.076Z,4.25
2023-04-16T04:18:17.769Z,4.93
2023-04-16T04:21:20.118Z,4.68
2023-04-16T04:24:22.660Z,5.40
2023-04-16T04:27:24.676Z,5.18
2023-04-16T04:30:26.829Z,5.25
2023-04-16T04:33:29.267Z,4.43
2023-04-16T04:36:31.293Z,5.40
2023-04-16T04:39:33.280Z,4.88
2023-04-16T04:42:35.302Z,5.13
2023-04-16T04:45:37.681Z,6.72
2023-04-16T04:48:39.742Z,5.50
2023-04-16T04:51:41.997Z,4.30
2023-04-16T04:54:43.977Z,4.80
2023-04-16T04:57:46.090Z,4.68
2023-04-16T05:00:48.235Z,4.97
2023-04-16T05:03:52.235Z,4.68
2023-04-16T05:06:54.259Z,5.40
2023-04-16T05:09:56.584Z,4.65
2023-04-16T05:12:58.842Z,4.30
2023-04-16T05:16:00.852Z,4.53
2023-04-16T05:19:02.891Z,5.05
2023-04-16T05:22:05.063Z,4.53
2023-04-16T05:25:07.411Z,4.95
2023-04-16T05:28:11.088Z,5.03
2023-04-16T05:31:13.253Z,5.03
2023-04-16T05:34:15.242Z,4.20
2023-04-16T05:37:18.173Z,5.57
2023-04-16T05:40:20.306Z,5.88
2023-04-16T05:43:22.324Z,4.18
2023-04-16T05:46:24.408Z,4.18
2023-04-16T05:49:26.468Z,4.15
2023-04-16T05:52:28.450Z,4.60
2023-04-16T05:55:30.539Z,3.92
2023-04-16T05:58:32.528Z,4.10
2023-04-16T06:01:34.620Z,4.82
2023-04-16T06:04:37.317Z,5.25
2023-04-16T06:07:39.433Z,5.22
2023-04-16T06:10:41.483Z,3.65
2023-04-16T06:13:43.569Z,3.83
2023-04-16T06:16:46.967Z,4.70
2023-04-16T06:19:49.050Z,3.78
2023-04-16T06:22:52.044Z,4.10
2023-04-16T06:25:54.608Z,3.70
2023-04-16T06:28:56.704Z,3.60
2023-04-16T06:31:58.839Z,3.85
2023-04-16T06:35:01.138Z,3.85
2023-04-16T06:38:03.178Z,3.63
2023-04-16T06:41:05.366Z,3.00
2023-04-16T06:44:07.431Z,4.03
2023-04-16T06:47:09.522Z,3.95
2023-04-16T06:50:11.862Z,3.30
2023-04-16T06:53:13.912Z,2.83
2023-04-16T06:56:16.216Z,3.28
2023-04-16T06:59:18.827Z,3.25
2023-04-16T07:02:20.916Z,3.47
2023-04-16T07:05:23.065Z,2.80
2023-04-16T07:08:28.051Z,2.38
2023-04-16T07:11:30.811Z,2.22
2023-04-16T07:14:32.858Z,2.72
2023-04-16T07:17:34.873Z,2.67
2023-04-16T07:20:37.089Z,2.45
2023-04-16T07:23:39.180Z,2.72
2023-04-16T07:26:41.640Z,2.38
2023-04-16T07:29:45.772Z,1.45
2023-04-16T07:35:49.862Z,2.30
2023-04-16T07:38:51.862Z,2.53
2023-04-16T07:41:53.919Z,2.08
2023-04-16T07:44:55.951Z,2.20
2023-04-16T07:47:57.993Z,1.65
2023-04-16T07:51:00.141Z,1.83
2023-04-16T07:54:02.286Z,1.85
2023-04-16T07:57:04.313Z,3.42
2023-04-16T08:00:07.208Z,2.03
2023-04-16T08:03:09.573Z,3.13
2023-04-16T08:06:11.777Z,1.63
2023-04-16T08:09:13.785Z,1.60
2023-04-16T08:12:17.343Z,1.88
2023-04-16T08:15:19.761Z,2.03
2023-04-16T08:18:21.816Z,1.73
2023-04-16T08:21:23.887Z,1.50
2023-04-16T08:24:26.400Z,1.80
2023-04-16T08:27:28.380Z,2.25
2023-04-16T08:30:30.732Z,1.63
2023-04-16T08:33:32.973Z,2.67
2023-04-16T08:36:35.061Z,2.13
2023-04-16T08:42:52.646Z,2.10
2023-04-16T08:45:57.069Z,2.45
2023-04-16T08:49:00.122Z,2.05
2023-04-16T08:52:06.244Z,2.45
2023-04-16T08:55:14.627Z,1.67
2023-04-16T08:58:20.196Z,3.10
2023-04-16T09:01:29.621Z,2.17
2023-04-16T09:04:32.640Z,3.80
2023-04-16T09:07:35.621Z,2.88
2023-04-16T09:10:41.777Z,1.50
2023-04-16T09:13:44.579Z,2.40
2023-04-16T09:16:53.619Z,2.17
2023-04-16T09:19:55.954Z,2.65
2023-04-16T09:22:57.915Z,2.38
2023-04-16T09:26:01.083Z,2.47
2023-04-16T09:29:03.382Z,2.17
2023-04-16T09:32:07.600Z,2.13
2023-04-16T09:35:09.701Z,2.78
2023-04-16T09:38:11.793Z,3.67
2023-04-16T09:41:16.439Z,2.47
2023-04-16T09:44:18.715Z,2.08
2023-04-16T09:47:21.485Z,2.28
2023-04-16T09:50:26.889Z,3.15
2023-04-16T09:53:32.540Z,2.10
2023-04-16T09:56:39.571Z,2.90
2023-04-16T09:59:41.665Z,1.70
2023-04-16T10:02:43.760Z,2.00
2023-04-16T10:05:46.783Z,2.72
2023-04-16T10:08:50.172Z,2.28
2023-04-16T10:11:52.670Z,2.17
2023-04-16T10:14:54.786Z,3.15
2023-04-16T10:17:58.168Z,2.67
2023-04-16T10:21:00.728Z,2.75
2023-04-16T10:24:03.529Z,2.63
2023-04-16T10:27:05.582Z,2.17
2023-04-16T10:30:08.906Z,2.28
2023-04-16T10:33:11.758Z,2.78
2023-04-16T10:36:23.619Z,2.15
2023-04-16T10:39:28.253Z,1.80
2023-04-16T10:42:31.948Z,2.45
2023-04-16T10:45:38.472Z,2.03
2023-04-16T10:48:50.365Z,2.53
2023-04-16T10:52:00.769Z,2.40
2023-04-16T10:55:02.814Z,1.88
2023-04-16T10:58:28.083Z,2.05
2023-04-16T11:01:34.641Z,1.85
2023-04-16T11:04:38.909Z,2.10
2023-04-16T11:07:49.740Z,2.85
2023-04-16T11:10:52.567Z,3.50
2023-04-16T11:13:57.307Z,3.10
2023-04-16T11:17:02.500Z,4.35
2023-04-16T11:20:19.488Z,1.80
2023-04-16T11:23:22.770Z,2.33
2023-04-16T11:26:29.559Z,2.67
2023-04-16T11:29:31.648Z,2.15
2023-04-16T11:32:35.314Z,2.00
2023-04-16T11:38:43.163Z,2.47
2023-04-16T11:41:49.320Z,2.00
2023-04-16T11:44:56.213Z,3.35
2023-04-16T11:47:58.320Z,2.60
2023-04-16T11:51:00.632Z,2.72
2023-04-16T11:54:02.743Z,2.72
2023-04-16T11:57:05.133Z,2.20
2023-04-16T12:00:13.131Z,2.45
2023-04-16T12:03:15.670Z,2.03
2023-04-16T12:06:17.998Z,2.10
2023-04-16T12:09:27.444Z,1.25
2023-04-16T12:12:32.137Z,1.30
2023-04-16T12:15:54.186Z,1.77
2023-04-16T12:19:04.229Z,1.85
2023-04-16T12:22:06.663Z,2.95
2023-04-16T12:25:12.609Z,1.50
2023-04-16T12:28:16.586Z,1.50
2023-04-16T12:34:29.120Z,1.40
2023-04-16T12:37:44.815Z,1.85
2023-04-16T12:40:46.851Z,1.60
2023-04-16T12:43:48.932Z,1.80
2023-04-16T12:46:51.198Z,1.15
2023-04-16T12:49:53.356Z,1.63
2023-04-16T12:52:58.672Z,1.10
2023-04-16T12:56:00.754Z,2.10
2023-04-16T12:59:03.441Z,1.50
2023-04-16T13:02:05.788Z,2.38
2023-04-16T13:05:09.024Z,1.48
2023-04-16T13:08:11.198Z,1.30
2023-04-16T13:11:13.723Z,1.00
2023-04-16T13:14:15.895Z,1.67
2023-04-16T13:17:17.858Z,2.58
2023-04-16T13:20:20.249Z,1.33
2023-04-16T13:23:22.840Z,1.08
2023-04-16T13:26:24.953Z,1.50
2023-04-16T13:29:27.188Z,1.73
2023-04-16T13:32:29.322Z,1.15
2023-04-16T13:35:31.515Z,1.15
2023-04-16T13:38:33.576Z,0.98
2023-04-16T13:41:35.579Z,0.75
2023-04-16T13:44:37.636Z,1.00
2023-04-16T13:47:43.867Z,2.55
2023-04-16T13:50:46.068Z,1.02
2023-04-16T13:53:48.320Z,1.42
2023-04-16T13:56:51.336Z,2.42
2023-04-16T13:59:53.420Z,1.40
2023-04-16T14:02:55.721Z,1.38
2023-04-16T14:05:57.913Z,1.00
2023-04-16T14:09:00.019Z,1.38
2023-04-16T14:12:02.099Z,1.27
2023-04-16T14:15:09.662Z,1.15
2023-04-16T14:18:11.732Z,1.33
2023-04-16T14:21:13.957Z,1.45
2023-04-16T14:24:16.143Z,0.98
2023-04-16T14:27:18.219Z,2.20
2023-04-16T14:30:20.337Z,0.70
2023-04-16T14:33:22.331Z,1.38
2023-04-16T14:36:24.388Z,1.10
2023-04-16T14:39:27.253Z,0.93
2023-04-16T14:42:29.333Z,0.90
2023-04-16T14:45:32.508Z,0.90
2023-04-16T14:48:34.582Z,0.93
2023-04-16T14:51:37.532Z,1.65
2023-04-16T14:54:44.605Z,1.40
2023-04-16T14:57:47.474Z,1.02
2023-04-16T15:00:49.680Z,1.58
2023-04-16T15:03:52.122Z,1.20
2023-04-16T15:06:55.649Z,1.83
2023-04-16T15:09:57.888Z,0.77
2023-04-16T15:12:59.883Z,2.22
2023-04-16T15:16:02.182Z,1.17
2023-04-16T15:19:05.101Z,0.80
2023-04-16T15:22:07.510Z,1.65
2023-04-16T15:25:09.817Z,0.68
2023-04-16T15:28:11.881Z,0.95
2023-04-16T15:31:14.038Z,2.00
2023-04-16T15:34:16.229Z,1.27
2023-04-16T15:37:18.388Z,1.48
2023-04-16T15:40:21.187Z,1.25
2023-04-16T15:43:23.296Z,2.45
2023-04-16T15:46:25.829Z,1.42
2023-04-16T15:49:27.901Z,2.17
2023-04-16T15:52:30.190Z,2.30
2023-04-16T15:55:32.340Z,1.75
2023-04-16T15:58:34.413Z,1.88
2023-04-16T16:01:36.550Z,1.25
2023-04-16T16:04:38.817Z,1.17
2023-04-16T16:07:41.897Z,1.20
2023-04-16T16:10:44.039Z,1.50
2023-04-16T16:13:46.135Z,1.20
2023-04-16T16:16:48.372Z,1.67
2023-04-16T16:19:52.181Z,0.98
2023-04-16T16:22:54.219Z,1.30
2023-04-16T16:25:56.934Z,1.30
2023-04-16T16:28:59.910Z,2.47
2023-04-16T16:32:01.967Z,2.08
2023-04-16T16:35:04.652Z,1.52
2023-04-16T16:38:08.576Z,1.40
2023-04-16T16:41:11.494Z,1.50
2023-04-16T16:44:13.542Z,2.15
2023-04-16T16:47:15.703Z,1.10
2023-04-16T16:50:18.052Z,1.38
2023-04-16T16:53:20.123Z,0.80
2023-04-16T16:56:23.036Z,1.08
2023-04-16T16:59:25.189Z,1.35
2023-04-16T17:02:27.474Z,0.60
2023-04-16T17:05:29.569Z,1.13
2023-04-16T17:08:31.605Z,1.35
2023-04-16T17:11:33.642Z,1.25
2023-04-16T17:14:35.802Z,0.85
2023-04-16T17:17:37.840Z,2.50
2023-04-16T17:20:43.003Z,1.27
2023-04-16T17:23:45.817Z,1.30
2023-04-16T17:26:48.644Z,1.63
2023-04-16T17:29:51.201Z,2.05
2023-04-16T17:32:54.283Z,2.08
2023-04-16T17:35:56.342Z,2.05
2023-04-16T17:38:58.731Z,1.77
2023-04-16T17:42:04.681Z,1.75
2023-04-16T17:45:08.298Z,1.30
2023-04-16T17:48:11.117Z,1.85
2023-04-16T17:51:15.560Z,1.30
2023-04-16T17:54:17.607Z,1.55
2023-04-16T17:57:19.623Z,1.35
2023-04-16T18:00:22.107Z,3.00
2023-04-16T18:03:24.151Z,0.70
2023-04-16T18:06:27.742Z,1.50
2023-04-16T18:09:31.532Z,1.77
2023-04-16T18:12:33.812Z,1.73
2023-04-16T18:15:38.759Z,3.60
2023-04-16T18:18:41.136Z,2.22
2023-04-16T18:21:43.482Z,2.35
2023-04-16T18:24:45.677Z,1.58
2023-04-16T18:27:47.919Z,1.42
2023-04-16T18:30:51.127Z,1.85
2023-04-16T18:33:57.860Z,1.70
2023-04-16T18:37:00.877Z,1.77
2023-04-16T18:40:05.775Z,1.30
2023-04-16T18:43:07.853Z,2.35
2023-04-16T18:46:09.878Z,1.20
2023-04-16T18:49:13.081Z,1.52
2023-04-16T18:52:15.586Z,1.38
2023-04-16T18:55:18.349Z,1.48
2023-04-16T18:58:20.595Z,1.58
2023-04-16T19:01:22.817Z,1.90
2023-04-16T19:04:25.203Z,1.23
2023-04-16T19:07:27.313Z,1.45
2023-04-16T19:10:29.727Z,1.52
2023-04-16T19:13:32.523Z,3.88
2023-04-16T19:16:35.335Z,2.88
2023-04-16T19:19:37.503Z,1.45
2023-04-16T19:22:39.507Z,1.10
2023-04-16T19:25:41.654Z,1.10
2023-04-16T19:28:43.794Z,1.75
2023-04-16T19:31:47.236Z,2.65
2023-04-16T19:34:49.340Z,1.55
2023-04-16T19:37:51.698Z,1.65
2023-04-16T19:40:53.816Z,1.90
2023-04-16T19:43:56.105Z,1.38
2023-04-16T19:46:58.799Z,1.40
2023-04-16T19:50:01.080Z,1.98
2023-04-16T19:53:03.261Z,2.03
2023-04-16T19:56:05.768Z,1.70
2023-04-16T19:59:07.804Z,2.15
2023-04-16T20:02:09.814Z,1.95
2023-04-16T20:05:11.861Z,1.70
2023-04-16T20:08:13.837Z,1.70
2023-04-16T20:11:15.877Z,1.98
2023-04-16T20:14:18.044Z,1.67
2023-04-16T20:17:20.151Z,1.45
2023-04-16T20:20:23.796Z,2.15
2023-04-16T20:23:25.960Z,1.58
2023-04-16T20:26:33.720Z,1.77
2023-04-16T20:29:35.868Z,2.20
2023-04-16T20:32:45.395Z,1.90
2023-04-16T20:35:47.622Z,2.70
2023-04-16T20:38:51.464Z,1.58
2023-04-16T20:41:57.411Z,2.20
2023-04-16T20:45:00.782Z,2.08
2023-04-16T20:48:02.805Z,1.75
2023-04-16T20:51:06.154Z,1.30
2023-04-16T20:54:10.197Z,2.90
2023-04-16T20:57:12.159Z,1.92
2023-04-16T21:00:15.534Z,1.63
2023-04-16T21:03:18.288Z,2.40
2023-04-16T21:06:22.567Z,1.48
2023-04-16T21:12:26.539Z,1.33
2023-04-16T21:15:28.624Z,1.67
2023-04-16T21:18:30.887Z,1.38
2023-04-16T21:21:33.759Z,2.10
2023-04-16T21:24:35.989Z,2.33
2023-04-16T21:27:38.003Z,2.05
2023-04-16T21:30:40.063Z,2.00
2023-04-16T21:33:42.248Z,1.23
2023-04-16T21:36:44.292Z,1.25
2023-04-16T21:39:46.314Z,1.70
2023-04-16T21:42:48.368Z,1.70
2023-04-16T21:45:53.544Z,2.10
2023-04-16T21:48:55.530Z,2.15
2023-04-16T21:51:59.338Z,2.05
2023-04-16T21:55:01.428Z,1.50
2023-04-16T21:58:03.912Z,1.88
2023-04-16T22:01:07.730Z,1.42
2023-04-16T22:04:12.303Z,1.55
2023-04-16T22:07:16.977Z,2.00
2023-04-16T22:10:19.378Z,2.17
2023-04-16T22:13:22.845Z,2.13
2023-04-16T22:16:25.846Z,1.60
2023-04-16T22:19:28.365Z,1.73
2023-04-16T22:22:30.532Z,2.00
2023-04-16T22:25:32.543Z,1.73
2023-04-16T22:28:34.496Z,2.65
2023-04-16T22:31:36.498Z,2.20
2023-04-16T22:34:38.695Z,2.22
2023-04-16T22:37:40.905Z,2.20
2023-04-16T22:40:45.233Z,2.05
2023-04-16T22:43:48.459Z,1.55
2023-04-16T22:46:51.820Z,1.83
2023-04-16T22:49:54.077Z,1.75
2023-04-16T22:52:56.029Z,2.13
2023-04-16T22:55:57.989Z,2.00
2023-04-16T22:59:00.006Z,1.73
2023-04-16T23:02:02.182Z,2.08
2023-04-16T23:05:05.021Z,3.65
2023-04-16T23:08:07.076Z,3.97
2023-04-16T23:11:09.027Z,1.60
2023-04-16T23:14:11.198Z,1.40
2023-04-16T23:17:13.925Z,1.48
2023-04-16T23:20:16.120Z,1.25
2023-04-16T23:23:18.199Z,1.88
2023-04-16T23:26:20.294Z,1.60
2023-04-16T23:29:22.384Z,1.58
2023-04-16T23:32:24.610Z,1.85
2023-04-16T23:35:26.727Z,2.22
2023-04-16T23:38:28.860Z,1.65
2023-04-16T23:41:30.873Z,2.05
2023-04-16T23:44:33.848Z,1.50
2023-04-16T23:47:35.972Z,1.73
2023-04-16T23:50:38.071Z,7.70
2023-04-16T23:53:44.458Z,1.90
2023-04-16T23:56:46.648Z,1.23
2023-04-16T23:59:48.596Z,1.70
